createdAt,value
2022-08-26T00:00:48.209Z,37.88
2022-08-26T00:01:48.253Z,37.95
2022-08-26T00:02:48.190Z,39.57
2022-08-26T00:03:48.222Z,39.51
2022-08-26T00:04:48.175Z,37.57
2022-08-26T00:05:48.178Z,39.43
2022-08-26T00:06:48.209Z,34.56
2022-08-26T00:07:48.155Z,35.91
2022-08-26T00:08:48.166Z,34.01
2022-08-26T00:09:48.138Z,33.82
2022-08-26T00:10:48.135Z,37.87
2022-08-26T00:11:48.151Z,44.94
2022-08-26T00:12:48.119Z,38.17
2022-08-26T00:13:48.129Z,33.99
2022-08-26T00:14:48.099Z,43.12
2022-08-26T00:15:48.099Z,43.51
2022-08-26T00:16:49.033Z,39.03
2022-08-26T00:17:48.086Z,37.83
2022-08-26T00:18:48.078Z,39.95
2022-08-26T00:19:48.067Z,45.00
2022-08-26T00:20:48.060Z,40.06
2022-08-26T00:21:48.722Z,39.87
2022-08-26T00:22:48.049Z,44.74
2022-08-26T00:23:48.054Z,43.27
2022-08-26T00:24:48.194Z,52.49
2022-08-26T00:25:48.023Z,46.80
2022-08-26T00:26:48.049Z,46.25
2022-08-26T00:27:48.004Z,44.23
2022-08-26T00:28:47.994Z,47.13
2022-08-26T00:29:48.993Z,44.80
2022-08-26T00:30:47.989Z,39.14
2022-08-26T00:31:48.061Z,38.61
2022-08-26T00:32:47.971Z,45.89
2022-08-26T00:33:47.979Z,40.67
2022-08-26T00:34:47.981Z,46.00
2022-08-26T00:35:47.951Z,46.20
2022-08-26T00:36:47.971Z,43.05
2022-08-26T00:37:47.931Z,52.09
2022-08-26T00:38:47.957Z,43.58
2022-08-26T00:39:47.936Z,46.13
2022-08-26T00:40:47.908Z,41.38
2022-08-26T00:41:47.923Z,34.17
2022-08-26T00:42:47.886Z,42.37
2022-08-26T00:43:48.114Z,43.79
2022-08-26T00:44:47.882Z,45.35
2022-08-26T00:45:48.003Z,45.32
2022-08-26T00:46:47.911Z,38.72
2022-08-26T00:47:47.865Z,42.44
2022-08-26T00:48:47.844Z,47.73
2022-08-26T00:49:47.843Z,55.67
2022-08-26T00:50:47.837Z,40.28
2022-08-26T00:51:47.856Z,35.13
2022-08-26T00:52:48.294Z,43.36
2022-08-26T00:53:47.808Z,33.67
2022-08-26T00:54:47.801Z,45.89
2022-08-26T00:55:47.791Z,42.56
2022-08-26T00:56:47.822Z,45.89
2022-08-26T00:57:47.763Z,39.67
2022-08-26T00:58:48.769Z,43.54
2022-08-26T00:59:47.859Z,41.33
2022-08-26T01:00:47.775Z,43.58
2022-08-26T01:01:47.812Z,44.24
2022-08-26T01:02:47.895Z,35.16
2022-08-26T01:03:47.747Z,35.27
2022-08-26T01:04:47.722Z,43.97
2022-08-26T01:05:48.714Z,44.60
2022-08-26T01:06:47.750Z,37.25
2022-08-26T01:07:47.693Z,38.85
2022-08-26T01:08:47.691Z,45.86
2022-08-26T01:09:47.677Z,38.22
2022-08-26T01:10:47.670Z,51.56
2022-08-26T01:11:47.690Z,36.86
2022-08-26T01:12:47.661Z,47.20
2022-08-26T01:13:47.652Z,39.91
2022-08-26T01:14:47.643Z,54.63
2022-08-26T01:15:47.633Z,45.80
2022-08-26T01:16:47.672Z,44.18
2022-08-26T01:17:47.618Z,45.73
2022-08-26T01:18:47.616Z,48.22
2022-08-26T01:19:47.607Z,41.11
2022-08-26T01:20:47.594Z,35.41
2022-08-26T01:21:47.610Z,40.54
2022-08-26T01:22:47.582Z,38.95
2022-08-26T01:23:47.574Z,32.83
2022-08-26T01:24:47.564Z,48.23
2022-08-26T01:25:47.561Z,41.27
2022-08-26T01:26:47.578Z,53.28
2022-08-26T01:27:49.204Z,46.94
2022-08-26T01:28:51.733Z,43.70
2022-08-26T01:29:47.539Z,38.41
2022-08-26T01:30:47.526Z,41.70
2022-08-26T01:31:47.664Z,46.44
2022-08-26T01:32:47.507Z,36.54
2022-08-26T01:33:47.500Z,39.93
2022-08-26T01:34:47.489Z,45.65
2022-08-26T01:35:47.483Z,56.38
2022-08-26T01:36:51.167Z,43.45
2022-08-26T01:37:48.470Z,34.43
2022-08-26T01:38:47.480Z,37.31
2022-08-26T01:39:47.473Z,41.83
2022-08-26T01:40:47.450Z,41.96
2022-08-26T01:41:47.467Z,44.66
2022-08-26T01:42:48.429Z,43.40
2022-08-26T01:43:47.435Z,42.06
2022-08-26T01:44:47.411Z,54.26
2022-08-26T01:45:47.479Z,52.50
2022-08-26T01:46:47.447Z,47.05
2022-08-26T01:47:47.394Z,54.28
2022-08-26T01:48:47.385Z,42.70
2022-08-26T01:49:48.376Z,43.98
2022-08-26T01:50:47.379Z,41.82
2022-08-26T01:51:47.398Z,42.57
2022-08-26T01:52:50.004Z,43.82
2022-08-26T01:55:59.949Z,41.11
2022-08-26T01:56:59.974Z,40.25
2022-08-26T01:57:59.931Z,47.37
2022-08-26T01:58:59.929Z,48.24
2022-08-26T01:59:59.915Z,35.15
2022-08-26T02:00:59.963Z,44.88
2022-08-26T02:01:59.926Z,46.04
2022-08-26T02:02:59.894Z,41.72
2022-08-26T02:03:59.887Z,42.53
2022-08-26T02:04:59.934Z,45.38
2022-08-26T02:05:59.864Z,43.09
2022-08-26T02:07:01.027Z,45.70
2022-08-26T02:08:00.992Z,54.95
2022-08-26T02:09:00.988Z,45.67
2022-08-26T02:10:00.977Z,44.98
2022-08-26T02:11:00.979Z,41.03
2022-08-26T02:12:00.995Z,45.91
2022-08-26T02:13:01.006Z,59.82
2022-08-26T02:14:00.952Z,40.98
2022-08-26T02:15:00.990Z,44.23
2022-08-26T02:16:01.000Z,42.23
2022-08-26T02:17:00.948Z,37.39
2022-08-26T02:18:00.927Z,42.76
2022-08-26T02:19:00.904Z,42.72
2022-08-26T02:20:00.895Z,34.19
2022-08-26T02:21:00.890Z,38.26
2022-08-26T02:22:00.913Z,43.45
2022-08-26T02:23:00.918Z,44.81
2022-08-26T02:24:00.881Z,48.73
2022-08-26T02:25:00.854Z,42.85
2022-08-26T02:26:00.846Z,47.92
2022-08-26T02:27:00.871Z,48.26
2022-08-26T02:28:00.878Z,46.42
2022-08-26T02:29:00.828Z,38.34
2022-08-26T02:30:00.837Z,48.50
2022-08-26T02:31:00.812Z,43.21
2022-08-26T02:32:00.832Z,40.04
2022-08-26T02:33:00.799Z,44.38
2022-08-26T02:34:00.792Z,43.00
2022-08-26T02:35:00.781Z,49.15
2022-08-26T02:36:00.777Z,41.96
2022-08-26T02:37:00.853Z,45.99
2022-08-26T02:38:00.755Z,42.25
2022-08-26T02:39:00.746Z,60.72
2022-08-26T02:40:00.802Z,47.70
2022-08-26T02:41:00.743Z,48.32
2022-08-26T02:42:00.760Z,50.49
2022-08-26T02:43:00.712Z,55.46
2022-08-26T02:44:00.703Z,49.19
2022-08-26T02:45:00.710Z,49.80
2022-08-26T02:46:02.128Z,50.69
2022-08-26T02:47:01.764Z,52.25
2022-08-26T02:48:00.685Z,43.31
2022-08-26T02:49:00.671Z,45.88
2022-08-26T02:50:00.677Z,45.99
2022-08-26T02:51:00.653Z,42.02
2022-08-26T02:52:00.653Z,38.37
2022-08-26T02:53:00.670Z,45.26
2022-08-26T02:54:00.626Z,47.04
2022-08-26T02:55:00.633Z,42.81
2022-08-26T02:56:00.608Z,46.45
2022-08-26T02:57:00.606Z,53.18
2022-08-26T02:58:00.630Z,55.03
2022-08-26T02:59:00.601Z,50.66
2022-08-26T03:00:00.586Z,48.88
2022-08-26T03:01:01.508Z,46.78
2022-08-26T03:02:00.688Z,54.76
2022-08-26T03:03:00.583Z,47.64
2022-08-26T03:04:00.555Z,49.42
2022-08-26T03:05:02.302Z,50.76
2022-08-26T03:06:00.534Z,48.44
2022-08-26T03:07:00.541Z,50.28
2022-08-26T03:08:00.549Z,43.23
2022-08-26T03:09:00.505Z,44.79
2022-08-26T03:10:00.510Z,52.14
2022-08-26T03:11:01.678Z,46.20
2022-08-26T03:12:00.488Z,51.92
2022-08-26T03:13:00.573Z,45.71
2022-08-26T03:14:00.483Z,58.17
2022-08-26T03:15:00.462Z,43.22
2022-08-26T03:16:00.517Z,45.85
2022-08-26T03:17:00.454Z,46.92
2022-08-26T03:18:00.486Z,41.67
2022-08-26T03:19:00.424Z,53.99
2022-08-26T03:20:01.423Z,51.99
2022-08-26T03:21:00.415Z,47.26
2022-08-26T03:22:00.406Z,45.65
2022-08-26T03:23:00.445Z,47.40
2022-08-26T03:24:00.509Z,53.95
2022-08-26T03:25:00.386Z,54.75
2022-08-26T03:26:00.381Z,60.46
2022-08-26T03:27:00.372Z,51.17
2022-08-26T03:28:01.386Z,47.81
2022-08-26T03:29:00.352Z,49.07
2022-08-26T03:30:00.342Z,54.66
2022-08-26T03:31:00.391Z,54.42
2022-08-26T03:32:00.330Z,55.99
2022-08-26T03:33:00.358Z,46.87
2022-08-26T03:34:00.310Z,53.70
2022-08-26T03:35:00.307Z,51.93
2022-08-26T03:36:00.298Z,48.79
2022-08-26T03:37:00.287Z,50.08
2022-08-26T03:38:00.305Z,53.41
2022-08-26T03:39:00.271Z,51.82
2022-08-26T03:40:00.395Z,51.71
2022-08-26T03:41:01.260Z,53.37
2022-08-26T03:42:00.260Z,51.60
2022-08-26T03:43:00.269Z,52.06
2022-08-26T03:44:01.904Z,45.43
2022-08-26T03:45:01.226Z,55.01
2022-08-26T03:46:00.223Z,53.30
2022-08-26T03:47:00.234Z,50.96
2022-08-26T03:48:00.234Z,54.25
2022-08-26T03:49:00.195Z,51.42
2022-08-26T03:50:00.198Z,55.39
2022-08-26T03:51:00.185Z,49.33
2022-08-26T03:52:00.180Z,47.97
2022-08-26T03:53:00.192Z,47.12
2022-08-26T03:54:00.165Z,41.66
2022-08-26T03:55:00.167Z,51.67
2022-08-26T03:56:00.144Z,50.88
2022-08-26T03:57:00.140Z,49.02
2022-08-26T03:58:00.160Z,53.45
2022-08-26T03:59:00.118Z,51.93
2022-08-26T04:00:00.128Z,53.35
2022-08-26T04:01:00.112Z,50.69
2022-08-26T04:02:00.183Z,51.19
2022-08-26T04:03:00.198Z,52.34
2022-08-26T04:04:00.835Z,49.99
2022-08-26T04:05:00.073Z,53.20
2022-08-26T04:06:00.064Z,52.31
2022-08-26T04:07:00.056Z,56.61
2022-08-26T04:08:00.082Z,51.32
2022-08-26T04:09:00.053Z,55.09
2022-08-26T04:10:00.032Z,54.47
2022-08-26T04:11:00.028Z,50.61
2022-08-26T04:12:00.023Z,56.24
2022-08-26T04:13:00.039Z,49.95
2022-08-26T04:14:00.011Z,53.41
2022-08-26T04:15:00.011Z,53.61
2022-08-26T04:16:00.040Z,56.08
2022-08-26T04:16:59.980Z,53.63
2022-08-26T04:18:00.000Z,55.48
2022-08-26T04:18:59.963Z,57.05
2022-08-26T04:19:59.956Z,56.28
2022-08-26T04:20:59.951Z,52.07
2022-08-26T04:21:59.936Z,56.09
2022-08-26T04:22:59.956Z,50.62
2022-08-26T04:23:59.920Z,53.45
2022-08-26T04:25:00.916Z,55.64
2022-08-26T04:25:59.911Z,54.40
2022-08-26T04:26:59.900Z,57.51
2022-08-26T04:27:59.921Z,54.39
2022-08-26T04:28:59.881Z,54.46
2022-08-26T04:29:59.875Z,54.77
2022-08-26T04:30:59.921Z,51.41
2022-08-26T04:31:59.867Z,53.03
2022-08-26T04:32:59.877Z,53.91
2022-08-26T04:33:59.842Z,55.81
2022-08-26T04:34:59.852Z,56.40
2022-08-26T04:35:59.826Z,51.02
2022-08-26T04:36:59.820Z,52.91
2022-08-26T04:37:59.834Z,54.33
2022-08-26T04:38:59.817Z,49.79
2022-08-26T04:39:59.894Z,54.33
2022-08-26T04:40:59.788Z,53.32
2022-08-26T04:41:59.790Z,55.17
2022-08-26T04:42:59.799Z,50.93
2022-08-26T04:43:59.780Z,53.87
2022-08-26T04:44:59.773Z,57.84
2022-08-26T04:46:00.821Z,55.80
2022-08-26T04:46:59.753Z,54.27
2022-08-26T04:47:59.771Z,55.78
2022-08-26T04:48:59.756Z,55.87
2022-08-26T04:49:59.720Z,55.55
2022-08-26T04:50:59.715Z,57.35
2022-08-26T04:51:59.710Z,53.34
2022-08-26T04:52:59.749Z,55.22
2022-08-26T04:53:59.710Z,58.72
2022-08-26T04:54:59.673Z,58.25
2022-08-26T04:55:59.689Z,59.12
2022-08-26T04:56:59.671Z,55.13
2022-08-26T04:57:59.682Z,52.10
2022-08-26T04:58:59.663Z,52.02
2022-08-26T04:59:59.640Z,54.92
2022-08-26T05:00:59.659Z,53.36
2022-08-26T05:01:59.738Z,52.49
2022-08-26T05:02:59.635Z,54.63
2022-08-26T05:03:59.647Z,53.86
2022-08-26T05:04:59.600Z,54.97
2022-08-26T05:05:59.595Z,52.19
2022-08-26T05:06:59.862Z,53.20
2022-08-26T05:08:00.599Z,55.55
2022-08-26T05:08:59.568Z,56.02
2022-08-26T05:09:59.557Z,55.52
2022-08-26T05:10:59.556Z,52.69
2022-08-26T05:11:59.544Z,52.76
2022-08-26T05:12:59.563Z,55.79
2022-08-26T05:14:02.232Z,54.45
2022-08-26T05:15:00.521Z,53.89
2022-08-26T05:16:01.192Z,54.57
2022-08-26T05:16:59.508Z,54.58
2022-08-26T05:17:59.525Z,52.83
2022-08-26T05:18:59.489Z,54.67
2022-08-26T05:19:59.481Z,54.47
2022-08-26T05:20:59.478Z,58.07
2022-08-26T05:21:59.468Z,54.76
2022-08-26T05:22:59.489Z,53.53
2022-08-26T05:23:59.464Z,50.76
2022-08-26T05:24:59.441Z,57.19
2022-08-26T05:26:00.569Z,55.58
2022-08-26T05:26:59.428Z,53.35
2022-08-26T05:27:59.454Z,54.35
2022-08-26T05:28:59.419Z,55.33
2022-08-26T05:29:59.405Z,54.84
2022-08-26T05:30:59.444Z,51.22
2022-08-26T05:31:59.392Z,54.27
2022-08-26T05:32:59.407Z,55.01
2022-08-26T05:33:59.375Z,56.65
2022-08-26T05:34:59.373Z,53.78
2022-08-26T05:35:59.362Z,53.61
2022-08-26T05:36:59.348Z,55.03
2022-08-26T05:37:59.370Z,54.73
2022-08-26T05:38:59.341Z,52.30
2022-08-26T05:39:59.385Z,50.92
2022-08-26T05:40:59.318Z,59.95
2022-08-26T05:41:59.311Z,53.23
2022-08-26T05:42:59.332Z,50.73
2022-08-26T05:43:59.294Z,53.31
2022-08-26T05:44:59.307Z,52.58
2022-08-26T05:45:59.334Z,50.62
2022-08-26T05:46:59.268Z,53.78
2022-08-26T05:47:59.283Z,56.20
2022-08-26T05:48:59.254Z,48.93
2022-08-26T05:49:59.251Z,50.20
2022-08-26T05:50:59.235Z,54.39
2022-08-26T05:51:59.227Z,51.20
2022-08-26T05:52:59.246Z,49.92
2022-08-26T05:53:59.210Z,54.13
2022-08-26T05:54:59.210Z,56.04
2022-08-26T05:55:59.198Z,57.54
2022-08-26T05:56:59.226Z,52.78
2022-08-26T05:57:59.209Z,52.50
2022-08-26T05:58:59.786Z,59.51
2022-08-26T05:59:59.166Z,53.97
2022-08-26T06:00:59.179Z,52.05
2022-08-26T06:01:59.233Z,53.17
2022-08-26T06:02:59.244Z,55.27
2022-08-26T06:03:59.654Z,49.12
2022-08-26T06:04:59.127Z,55.58
2022-08-26T06:05:59.118Z,54.26
2022-08-26T06:06:59.098Z,53.50
2022-08-26T06:07:59.132Z,52.41
2022-08-26T06:08:59.092Z,52.48
2022-08-26T06:10:28.214Z,54.95
2022-08-26T06:11:01.100Z,56.94
2022-08-26T06:11:59.085Z,52.39
2022-08-26T06:12:59.087Z,50.59
2022-08-26T06:14:03.254Z,55.33
2022-08-26T06:15:00.041Z,57.16
2022-08-26T06:15:59.085Z,53.82
2022-08-26T06:16:59.035Z,54.47
2022-08-26T06:17:59.053Z,52.89
2022-08-26T06:18:59.008Z,51.48
2022-08-26T06:19:59.003Z,54.48
2022-08-26T06:20:58.987Z,54.90
2022-08-26T06:21:58.983Z,53.58
2022-08-26T06:22:59.006Z,51.05
2022-08-26T06:23:59.031Z,53.89
2022-08-26T06:24:58.959Z,55.38
2022-08-26T06:25:58.958Z,51.11
2022-08-26T06:26:58.952Z,52.50
2022-08-26T06:27:58.976Z,51.69
2022-08-26T06:28:58.929Z,53.68
2022-08-26T06:29:58.914Z,52.90
2022-08-26T06:30:58.967Z,53.01
2022-08-26T06:31:58.909Z,51.73
2022-08-26T06:32:59.001Z,47.37
2022-08-26T06:33:58.892Z,52.47
2022-08-26T06:34:58.880Z,55.67
2022-08-26T06:35:58.880Z,53.11
2022-08-26T06:36:58.870Z,54.45
2022-08-26T06:37:58.858Z,53.66
2022-08-26T06:38:58.878Z,50.26
2022-08-26T06:39:58.977Z,59.26
2022-08-26T06:40:59.841Z,51.00
2022-08-26T06:41:59.828Z,53.99
2022-08-26T06:42:58.817Z,54.28
2022-08-26T06:43:58.839Z,54.94
2022-08-26T06:44:58.802Z,54.66
2022-08-26T06:45:58.883Z,50.06
2022-08-26T06:46:58.802Z,48.71
2022-08-26T06:47:58.806Z,51.76
2022-08-26T06:48:58.801Z,52.55
2022-08-26T06:49:58.766Z,55.63
2022-08-26T06:50:58.758Z,54.40
2022-08-26T06:51:59.057Z,52.30
2022-08-26T06:52:58.747Z,56.35
2022-08-26T06:53:58.761Z,54.58
2022-08-26T06:54:58.724Z,55.54
2022-08-26T06:55:58.722Z,53.46
2022-08-26T06:56:58.737Z,47.87
2022-08-26T06:57:58.836Z,51.47
2022-08-26T06:58:58.726Z,55.63
2022-08-26T06:59:58.696Z,53.07
2022-08-26T07:01:03.074Z,52.29
2022-08-26T07:02:00.719Z,54.70
2022-08-26T07:02:58.806Z,53.71
2022-08-26T07:03:58.689Z,54.49
2022-08-26T07:04:58.669Z,52.15
2022-08-26T07:05:58.650Z,49.81
2022-08-26T07:06:58.644Z,51.80
2022-08-26T07:07:58.667Z,54.19
2022-08-26T07:08:58.641Z,52.50
2022-08-26T07:09:58.687Z,54.68
2022-08-26T07:10:58.602Z,58.50
2022-08-26T07:11:58.596Z,48.72
2022-08-26T07:12:58.634Z,52.33
2022-08-26T07:13:58.619Z,51.60
2022-08-26T07:14:58.570Z,52.88
2022-08-26T07:15:58.574Z,53.46
2022-08-26T07:16:58.566Z,55.61
2022-08-26T07:17:58.570Z,51.65
2022-08-26T07:18:58.569Z,54.10
2022-08-26T07:19:58.546Z,56.17
2022-08-26T07:20:58.533Z,48.64
2022-08-26T07:21:58.515Z,52.28
2022-08-26T07:22:58.516Z,52.36
2022-08-26T07:24:01.290Z,54.11
2022-08-26T07:24:59.491Z,56.96
2022-08-26T07:25:58.507Z,53.08
2022-08-26T07:26:58.484Z,49.35
2022-08-26T07:27:58.598Z,52.36
2022-08-26T07:28:58.500Z,52.82
2022-08-26T07:29:58.469Z,54.89
2022-08-26T07:30:58.554Z,51.41
2022-08-26T07:31:58.440Z,51.93
2022-08-26T07:32:58.434Z,52.04
2022-08-26T07:33:58.459Z,56.29
2022-08-26T07:34:58.424Z,55.27
2022-08-26T07:35:58.411Z,53.36
2022-08-26T07:36:58.802Z,49.77
2022-08-26T07:37:58.394Z,58.66
2022-08-26T07:38:58.415Z,49.56
2022-08-26T07:39:59.419Z,50.61
2022-08-26T07:40:58.370Z,53.23
2022-08-26T07:41:58.377Z,54.26
2022-08-26T07:42:58.393Z,49.91
2022-08-26T07:43:58.370Z,54.63
2022-08-26T07:44:58.354Z,53.54
2022-08-26T07:45:58.326Z,47.78
2022-08-26T07:46:58.319Z,49.01
2022-08-26T07:47:58.317Z,52.30
2022-08-26T07:48:58.347Z,57.75
2022-08-26T07:49:58.305Z,54.58
2022-08-26T07:50:58.298Z,54.33
2022-08-26T07:51:58.286Z,52.63
2022-08-26T07:52:58.273Z,54.85
2022-08-26T07:56:08.373Z,52.80
2022-08-26T07:57:09.395Z,51.74
2022-08-26T07:58:09.493Z,52.51
2022-08-26T07:59:13.992Z,52.53
2022-08-26T08:00:10.474Z,55.25
2022-08-26T08:01:09.500Z,50.84
2022-08-26T08:02:09.466Z,52.71
2022-08-26T08:03:09.642Z,53.54
2022-08-26T08:04:10.272Z,53.13
2022-08-26T08:05:09.496Z,51.64
2022-08-26T08:06:09.436Z,48.96
2022-08-26T08:07:11.517Z,52.19
2022-08-26T08:08:26.890Z,51.45
2022-08-26T08:09:10.440Z,50.05
2022-08-26T08:10:11.405Z,51.38
2022-08-26T08:11:10.396Z,53.40
2022-08-26T08:12:09.404Z,48.55
2022-08-26T08:13:09.498Z,52.17
2022-08-26T08:14:11.832Z,52.94
2022-08-26T08:15:09.365Z,53.37
2022-08-26T08:16:12.430Z,50.93
2022-08-26T08:17:09.423Z,54.98
2022-08-26T08:18:15.804Z,54.94
2022-08-26T08:19:10.365Z,52.64
2022-08-26T08:20:09.324Z,53.27
2022-08-26T08:21:21.449Z,53.41
2022-08-26T08:22:18.024Z,59.04
2022-08-26T08:23:10.301Z,53.02
2022-08-26T08:24:09.320Z,50.04
2022-08-26T08:25:10.502Z,51.37
2022-08-26T08:26:09.279Z,59.56
2022-08-26T08:27:09.271Z,49.92
2022-08-26T08:28:09.396Z,55.64
2022-08-26T08:29:09.279Z,53.32
2022-08-26T08:30:09.248Z,53.80
2022-08-26T08:31:09.269Z,52.19
2022-08-26T08:32:11.605Z,52.55
2022-08-26T08:33:10.225Z,56.23
2022-08-26T08:34:09.251Z,53.41
2022-08-26T08:35:10.895Z,54.64
2022-08-26T08:36:09.377Z,52.24
2022-08-26T08:37:10.837Z,52.88
2022-08-26T08:38:10.221Z,56.98
2022-08-26T08:39:09.253Z,52.72
2022-08-26T08:40:09.207Z,56.79
2022-08-26T08:41:09.166Z,52.88
2022-08-26T08:42:09.160Z,54.76
2022-08-26T08:43:09.290Z,50.73
2022-08-26T08:44:09.187Z,53.16
2022-08-26T08:45:09.146Z,51.97
2022-08-26T08:46:09.179Z,54.35
2022-08-26T08:47:09.128Z,53.47
2022-08-26T08:48:09.255Z,52.90
2022-08-26T08:49:09.138Z,59.64
2022-08-26T08:50:09.099Z,55.00
2022-08-26T08:51:09.098Z,52.73
2022-08-26T08:52:09.079Z,54.66
2022-08-26T08:53:09.199Z,52.82
2022-08-26T08:54:09.109Z,55.14
2022-08-26T08:55:11.027Z,50.26
2022-08-26T08:56:09.053Z,50.92
2022-08-26T08:57:09.051Z,54.51
2022-08-26T08:58:09.241Z,57.59
2022-08-26T08:59:09.057Z,53.70
2022-08-26T09:00:09.029Z,50.17
2022-08-26T09:01:09.881Z,53.48
2022-08-26T09:02:09.036Z,53.16
2022-08-26T09:03:09.000Z,53.04
2022-08-26T09:04:09.039Z,50.58
2022-08-26T09:05:08.990Z,56.69
2022-08-26T09:06:09.980Z,54.70
2022-08-26T09:07:08.977Z,56.82
2022-08-26T09:08:09.092Z,52.70
2022-08-26T09:09:08.984Z,51.24
2022-08-26T09:10:08.955Z,53.28
2022-08-26T09:11:08.939Z,51.43
2022-08-26T09:12:09.939Z,56.47
2022-08-26T09:13:08.933Z,52.16
2022-08-26T09:14:08.964Z,51.79
2022-08-26T09:15:08.922Z,51.09
2022-08-26T09:16:10.089Z,52.84
2022-08-26T09:17:08.970Z,54.46
2022-08-26T09:18:09.036Z,49.33
2022-08-26T09:19:08.911Z,52.65
2022-08-26T09:20:08.879Z,51.27
2022-08-26T09:21:08.879Z,53.87
2022-08-26T09:22:09.540Z,50.34
2022-08-26T09:23:09.992Z,58.80
2022-08-26T09:24:11.339Z,51.30
2022-08-26T09:25:11.161Z,54.40
2022-08-26T09:26:08.839Z,53.78
2022-08-26T09:27:08.827Z,53.17
2022-08-26T09:28:09.082Z,53.16
2022-08-26T09:29:08.943Z,52.05
2022-08-26T09:30:08.809Z,54.36
2022-08-26T09:31:11.338Z,51.83
2022-08-26T09:32:09.815Z,51.67
2022-08-26T09:33:11.194Z,53.87
2022-08-26T09:34:08.815Z,52.13
2022-08-26T09:35:08.773Z,51.12
2022-08-26T09:36:08.766Z,53.87
2022-08-26T09:37:08.766Z,49.81
2022-08-26T09:38:11.675Z,52.70
2022-08-26T09:39:09.766Z,47.92
2022-08-26T09:40:08.817Z,53.60
2022-08-26T09:41:08.893Z,49.98
2022-08-26T09:42:09.569Z,50.41
2022-08-26T09:43:08.720Z,52.40
2022-08-26T09:44:08.742Z,52.80
2022-08-26T09:45:09.716Z,52.21
2022-08-26T09:46:08.709Z,51.99
2022-08-26T09:47:08.687Z,50.79
2022-08-26T09:48:08.898Z,51.21
2022-08-26T09:49:08.713Z,55.18
2022-08-26T09:50:09.808Z,51.04
2022-08-26T09:51:08.665Z,49.95
2022-08-26T09:52:08.719Z,54.17
2022-08-26T09:53:09.957Z,51.54
2022-08-26T09:54:08.636Z,53.36
2022-08-26T09:55:08.648Z,50.01
2022-08-26T09:56:08.725Z,54.24
2022-08-26T09:57:08.615Z,52.78
2022-08-26T09:58:09.178Z,50.63
2022-08-26T09:59:11.162Z,52.71
2022-08-26T10:00:08.618Z,54.11
2022-08-26T10:01:08.630Z,50.71
2022-08-26T10:02:12.297Z,53.58
2022-08-26T10:03:08.735Z,58.08
2022-08-26T10:04:08.666Z,50.87
2022-08-26T10:05:09.448Z,52.14
2022-08-26T10:06:08.547Z,52.20
2022-08-26T10:07:08.540Z,52.38
2022-08-26T10:08:08.553Z,54.25
2022-08-26T10:09:09.845Z,49.97
2022-08-26T10:10:09.553Z,52.79
2022-08-26T10:11:08.511Z,56.92
2022-08-26T10:12:08.509Z,52.10
2022-08-26T10:13:08.622Z,52.75
2022-08-26T10:14:08.486Z,56.18
2022-08-26T10:15:08.520Z,54.42
2022-08-26T10:16:10.847Z,52.71
2022-08-26T10:17:08.482Z,54.30
2022-08-26T10:18:08.564Z,54.09
2022-08-26T10:19:08.462Z,56.20
2022-08-26T10:20:16.811Z,54.99
2022-08-26T10:21:09.439Z,54.76
2022-08-26T10:22:08.451Z,56.01
2022-08-26T10:23:08.611Z,54.57
2022-08-26T10:24:08.481Z,58.21
2022-08-26T10:25:08.478Z,49.87
2022-08-26T10:26:08.402Z,53.44
2022-08-26T10:27:08.406Z,53.53
2022-08-26T10:28:08.530Z,57.20
2022-08-26T10:29:08.393Z,52.49
2022-08-26T10:30:08.402Z,53.53
2022-08-26T10:31:08.373Z,52.89
2022-08-26T10:32:08.421Z,53.48
2022-08-26T10:33:09.557Z,56.41
2022-08-26T10:34:08.373Z,52.84
2022-08-26T10:35:08.368Z,55.57
2022-08-26T10:36:08.332Z,55.45
2022-08-26T10:37:13.504Z,54.68
2022-08-26T10:38:09.568Z,53.77
2022-08-26T10:39:08.319Z,53.84
2022-08-26T10:40:09.377Z,51.69
2022-08-26T10:41:09.931Z,54.85
2022-08-26T10:42:08.314Z,55.06
2022-08-26T10:43:11.367Z,54.63
2022-08-26T10:44:09.275Z,58.05
2022-08-26T10:45:12.007Z,53.84
2022-08-26T10:46:09.331Z,54.92
2022-08-26T10:47:08.258Z,46.14
2022-08-26T10:48:08.486Z,49.00
2022-08-26T10:49:08.256Z,48.40
2022-08-26T10:50:08.277Z,48.30
2022-08-26T10:51:08.626Z,50.10
2022-08-26T10:52:12.388Z,50.37
2022-08-26T10:53:09.216Z,55.22
2022-08-26T10:54:08.336Z,52.67
2022-08-26T10:55:08.482Z,54.22
2022-08-26T10:56:18.766Z,52.29
2022-08-26T10:57:09.739Z,53.48
2022-08-26T10:58:08.918Z,52.57
2022-08-26T10:59:12.273Z,53.84
2022-08-26T11:00:08.188Z,54.04
2022-08-26T11:01:10.175Z,55.14
2022-08-26T11:02:08.150Z,54.54
2022-08-26T11:03:14.914Z,52.42
2022-08-26T11:04:09.195Z,54.62
2022-08-26T11:05:08.158Z,49.38
2022-08-26T11:06:08.123Z,54.60
2022-08-26T11:07:08.123Z,51.22
2022-08-26T11:08:08.254Z,54.45
2022-08-26T11:09:08.120Z,54.45
2022-08-26T11:10:08.102Z,52.91
2022-08-26T11:11:08.089Z,54.79
2022-08-26T11:12:10.292Z,51.25
2022-08-26T11:13:08.320Z,52.78
2022-08-26T11:14:08.109Z,49.52
2022-08-26T11:15:08.061Z,54.08
2022-08-26T11:16:08.063Z,52.16
2022-08-26T11:17:08.045Z,53.38
2022-08-26T11:18:08.304Z,51.52
2022-08-26T11:19:08.074Z,56.00
2022-08-26T11:20:13.261Z,47.14
2022-08-26T11:21:10.263Z,56.02
2022-08-26T11:22:08.020Z,59.13
2022-08-26T11:23:08.000Z,54.31
2022-08-26T11:24:08.044Z,52.58
2022-08-26T11:25:07.989Z,52.41
2022-08-26T11:26:08.203Z,55.32
2022-08-26T11:27:07.981Z,52.75
2022-08-26T11:28:08.267Z,51.86
2022-08-26T11:29:12.692Z,51.30
2022-08-26T11:30:08.948Z,50.27
2022-08-26T11:31:07.965Z,51.68
2022-08-26T11:32:07.948Z,54.42
2022-08-26T11:33:08.216Z,54.73
2022-08-26T11:34:10.789Z,54.39
2022-08-26T11:35:07.922Z,52.65
2022-08-26T11:36:12.225Z,51.17
2022-08-26T11:37:07.938Z,53.04
2022-08-26T11:38:08.029Z,55.88
2022-08-26T11:39:07.914Z,54.07
2022-08-26T11:40:07.959Z,54.78
2022-08-26T11:41:07.875Z,54.40
2022-08-26T11:42:07.873Z,55.77
2022-08-26T11:43:07.858Z,53.20
2022-08-26T11:44:07.862Z,54.51
2022-08-26T11:45:07.876Z,53.82
2022-08-26T11:46:09.234Z,51.07
2022-08-26T11:47:07.831Z,56.53
2022-08-26T11:48:07.879Z,53.66
2022-08-26T11:49:07.855Z,52.09
2022-08-26T11:50:07.831Z,54.23
2022-08-26T11:51:08.459Z,53.27
2022-08-26T11:52:07.823Z,53.49
2022-08-26T11:53:07.874Z,54.72
2022-08-26T11:54:07.787Z,53.09
2022-08-26T11:55:07.797Z,54.87
2022-08-26T11:56:07.765Z,54.55
2022-08-26T11:57:09.367Z,55.53
2022-08-26T11:58:08.882Z,56.29
2022-08-26T11:59:07.781Z,56.02
2022-08-26T12:00:09.482Z,52.91
2022-08-26T12:01:09.596Z,55.02
2022-08-26T12:02:07.747Z,55.00
2022-08-26T12:03:07.957Z,56.03
2022-08-26T12:04:07.831Z,55.69
2022-08-26T12:05:07.740Z,52.84
2022-08-26T12:06:07.705Z,57.02
2022-08-26T12:07:08.768Z,57.14
2022-08-26T12:08:08.009Z,57.83
2022-08-26T12:09:07.771Z,54.86
2022-08-26T12:10:07.753Z,54.77
2022-08-26T12:11:07.705Z,57.50
2022-08-26T12:12:07.679Z,55.21
2022-08-26T12:13:07.671Z,54.90
2022-08-26T12:14:07.650Z,55.32
2022-08-26T12:15:07.669Z,55.30
2022-08-26T12:16:07.830Z,55.08
2022-08-26T12:17:07.643Z,55.73
2022-08-26T12:18:07.814Z,53.46
2022-08-26T12:19:07.632Z,53.87
2022-08-26T12:20:07.627Z,57.43
2022-08-26T12:21:07.600Z,57.15
2022-08-26T12:22:07.604Z,58.22
2022-08-26T12:23:07.574Z,53.44
2022-08-26T12:24:07.570Z,55.79
2022-08-26T12:25:07.594Z,52.92
2022-08-26T12:26:07.552Z,56.74
2022-08-26T12:27:07.555Z,56.94
2022-08-26T12:28:07.694Z,57.45
2022-08-26T12:29:19.916Z,54.27
2022-08-26T12:30:08.710Z,54.01
2022-08-26T12:31:07.532Z,54.79
2022-08-26T12:32:07.532Z,55.60
2022-08-26T12:33:22.288Z,56.48
2022-08-26T12:34:17.376Z,54.30
2022-08-26T12:35:08.517Z,56.70
2022-08-26T12:36:07.497Z,54.40
2022-08-26T12:37:07.510Z,56.79
2022-08-26T12:38:07.691Z,55.27
2022-08-26T12:39:07.479Z,54.22
2022-08-26T12:40:07.527Z,53.47
2022-08-26T12:41:07.448Z,54.89
2022-08-26T12:42:07.438Z,54.99
2022-08-26T12:43:07.433Z,55.28
2022-08-26T12:44:07.422Z,55.99
2022-08-26T12:45:07.438Z,55.92
2022-08-26T12:46:07.459Z,54.61
2022-08-26T12:47:07.436Z,55.30
2022-08-26T12:48:07.446Z,53.92
2022-08-26T12:49:07.388Z,55.46
2022-08-26T12:50:07.435Z,53.52
2022-08-26T12:51:07.429Z,54.36
2022-08-26T12:52:07.392Z,56.40
2022-08-26T12:53:07.358Z,54.69
2022-08-26T12:54:07.382Z,53.19
2022-08-26T12:55:07.351Z,56.15
2022-08-26T12:56:07.336Z,53.97
2022-08-26T12:57:07.330Z,52.15